Station: Elliston

  Atmospheric Gas Attenuation - ITU Rec 676-11   --------------- db/100km ---------------
Date Time Temp RH % AH g/m3 Dew Point Wind Direction Speed kph Gust kph Barometer mB Rainfall Since 9am 24GHz 47GHz 76GHz 122GHz 134GHz 241GHz
12 09:00 13.2 78 8.96 9.5 19 1024.1 5 20.4 27.1 42.1 110.3 104.9 361.1
11 09:00 10.3 93 8.91 9.3 37 1017.2 3 20.4 27.6 43.1 113.2 107.6 370.3
10 09:00 11.5 95 9.81 10.7 0 1020.9 6 22.3 28.9 46.5 122.1 119.0 410.1
09 09:00 8.2 64 5.36 1.9 11 1022.7 0 12.9 22.6 29.9 77.8 62.9 213.3
08 09:00 3.9 89 5.63 2.2 4 1027.1 0 13.6 24.3 32.8 85.6 70.4 238.8
07 09:00 6.4 93 6.93 5.3 9 1031.5 0 16.3 26.0 37.3 97.5 86.0 293.9
06 09:00 7.4 97 7.72 7 7 1033.8 0 18.0 27.1 40.3 105.4 96.1 329.3
03 09:00 13.4 86 10 11.1 15 1028.1 5 22.6 28.9 46.5 122.2 119.4 411.7
02 09:00 12.9 69 7.78 7.4 28 1020.3 4 17.9 25.1 37.3 97.6 89.3 306.4
01 09:00 13.5 73 8.54 8.8 19 1010.4 0 19.5 25.8 39.6 103.9 97.8 336.2
30 09:00 10.5 59 5.72 2.9 11 1014.8 0.2 13.6 22.3 30.1 78.5 65.1 221.3
29 09:00 1013.1
28 09:00 8.6 70 6.02 3.5 2 1028 0.1 14.3 23.7 32.5 84.7 71.3 242.8
27 09:00 10.1 66 6.24 4 4 1026.5 0.1 14.7 23.6 32.7 85.3 72.7 247.8
26 09:00 9.2 93 8.31 8.2 4 1027.3 0.8 19.2 27.3 41.6 109.0 101.6 348.8
25 09:00 10.6 83 8.1 7.9 4 1023.7 0.2 18.7 26.4 39.8 104.4 96.6 331.5
24 09:00 9.9 77 7.19 6 7 1020.7 0 16.7 25.0 36.3 95.0 84.9 290.6
23 09:00 12.4 82 8.96 9.5 4 1024.4 0.1 20.4 27.3 42.5 111.5 106.0 364.9
22 09:00 14.9 79 10.07 11.4 19 1023.1 0.8 22.7 28.4 45.7 120.1 117.6 405.6
21 09:00 13.9 74 8.87 9.4 28 1019.7 4 20.2 26.5 41.1 107.9 102.4 352.4
20 09:00 13.5 79 9.24 10 33 1019 6 21.0 27.3 42.8 112.4 107.9 371.5
19 09:00 14.9 85 10.83 12.5 15 1018.3 0.6 24.3 29.5 48.7 128.1 127.7 441.1
18 09:00 12.6 68 7.52 6.8 22 1025.3 0 17.3 25.0 36.6 95.7 86.6 296.9
17 09:00 11 91 9.11 9.6 7 1021.9 0 20.8 27.9 43.8 115.0 109.9 378.2
16 09:00 15.3 88 11.49 13.3 2 1027.3 0.2 25.7 30.9 51.8 136.2 137.4 474.8
15 09:00 13.6 95 11.18 12.9 2 1024.3 4 25.1 30.8 51.4 135.1 135.6 468.4
14 09:00 15.4 88 11.56 13.4 28 1020.4 2 25.8 30.7 51.6 136.0 137.5 475.2
12 09:00 11.6 55 5.72 3 19 1017.3 0 13.5 22.1 29.8 77.7 64.4 218.8
11 09:00 6.7 74 5.63 2.4 4 1024.9 0 13.5 23.5 31.6 82.4 67.8 230.0
10 09:00 4 87 5.54 2 4 1027.6 0 13.4 24.2 32.5 84.5 69.1 234.3
09 09:00 6.5 80 6 3.4 2 1029.8 0 14.3 24.3 33.4 87.0 73.1 248.8
08 09:00 6.5 89 6.68 4.9 2 1031.9 0 15.8 25.6 36.3 94.6 82.5 281.5
07 09:00 10.5 87 8.44 8.5 4 1028.7 0 19.4 27.2 41.5 108.8 101.8 349.7
06 09:00 10.5 87 8.44 8.5 2 1027.4 0 19.4 27.2 41.5 108.7 101.7 349.4
05 09:00 8.8 91 7.92 7.5 4 1030.7 0 18.4 26.9 40.3 105.5 96.9 332.4
04 09:00 8.9 93 8.15 7.9 6 1033.6 0 18.8 27.4 41.4 108.3 100.2 344.0
03 09:00 13.9 93 11.15 12.8 2 1033.7 0.8 25.0 31.0 51.5 135.4 135.6 468.4
02 09:00 15 90 11.54 13.4 26 1027.9 1 25.8 31.1 52.2 137.4 138.7 479.4
01 09:00 14 77 9.29 10 26 1022.3 5 21.0 27.3 42.9 112.6 108.1 372.5
31 09:00 15.5 70 9.25 10.2 30 1014.6 4 20.9 26.5 41.6 109.3 104.9 361.4
30 09:00 17.7 40 6.03 4 37 1011.7 0.1 14.0 21.0 28.5 74.4 62.8 214.3
29 09:00 12.9 67 7.55 6.9 19 1023.6 0.6 17.4 24.9 36.5 95.5 86.5 296.7
28 09:00 10.8 95 9.39 10 4 1024.3 3 21.4 28.6 45.2 118.8 114.4 393.8
27 09:00 12.7 94 10.46 11.8 11 1020.5 2 23.6 29.7 48.6 127.7 126.3 435.9
26 09:00 13.6 57 6.71 5.3 19 1016 0 15.6 23.1 32.7 85.4 74.7 255.3
25 09:00 9.8 71 6.59 4.9 2 1024.2 0.1 15.5 24.2 34.1 89.1 77.4 264.1
24 09:00 13.5 80 9.36 10.2 15 1028.9 1 21.2 27.8 43.8 114.9 110.4 380.3
23 09:00 15.1 71 9.16 9.9 22 1026.8 2 20.7 26.9 42.0 110.2 105.3 362.6
22 09:00 14.6 72 9.01 9.6 19 1027.7 0 20.4 26.9 41.7 109.3 104.0 358.1
21 09:00 14 59 7.12 6.1 19 1027.1 5 16.4 24.0 34.5 90.1 80.1 274.3
20 09:00 14.8 68 8.61 8.9 15 1021.8 1 19.6 25.9 39.7 104.1 98.0 337.0
19 09:00 10.1 78 7.38 6.5 0 1018.1 0 17.1 25.2 36.9 96.6 87.0 298.1
18 09:00 13.6 63 7.41 6.8 7 1024.2 0 17.1 24.5 35.7 93.3 84.0 288.0
17 09:00 10.2 66 6.28 4.2 6 1029.6 0 14.8 23.8 33.0 85.9 73.3 249.9
16 09:00 10.1 63 5.96 3.5 4 1028.2 0 14.1 23.3 31.7 82.6 69.3 235.6
15 09:00 10.4 71 6.84 5.4 7 1030 0 16.0 24.6 35.1 91.6 80.4 274.8
14 09:00 12.2 77 8.31 8.4 4 1031.4 0.1 19.0 26.6 40.2 105.3 98.0 336.8
13 09:00 1029.7
12 09:00 19.7 37 6.28 4.7 19 1024.1 0 14.4 21.3 29.1 75.9 64.8 221.2
11 09:00 11.7 84 8.79 9.1 7 1029.5 4 20.1 27.5 42.4 111.2 105.1 361.5
09 09:00 13.9 80 9.59 10.5 28 1021 11 21.7 27.8 44.2 116.0 112.3 387.0
08 09:00 17.3 79 11.64 13.6 19 1014.9 2 25.9 29.9 50.5 132.9 134.6 465.6
07 09:00 17.7 86 12.97 15.3 30 1012 0.2 28.7 32.0 55.8 147.2 152.5 528.0
06 09:00 16 49 6.68 5.4 33 1018.3 0 15.4 22.5 31.7 82.8 72.2 247.0
05 09:00 14.3 64 7.86 7.7 22 1026.4 0 18.0 25.1 37.2 97.3 89.2 306.1
04 09:00 19.1 38 6.23 4.6 11 1029.7 0.2 14.3 21.5 29.4 76.5 65.0 221.9
03 09:00 16 81 11.04 12.8 4 1028.4 3 24.7 29.9 49.4 129.9 129.8 448.6
02 09:00 15.9 93 12.59 14.7 19 1022.8 2 28.0 32.4 56.0 147.6 151.8 525.2
01 09:00 15 87 11.16 12.8 37 1023.7 1 25.0 30.2 50.3 132.4 132.8 458.8
30 09:00 12.5 87 9.57 10.4 19 1022.1 19 21.7 28.2 44.9 118.0 114.2 393.4
29 09:00 13.4 89 10.35 11.7 33 1011.4 7 23.4 28.9 47.2 124.2 122.7 423.5
28 09:00 15.1 90 11.61 13.5 4 1013.4 0.4 26.0 30.6 51.7 136.2 138.0 477.0
27 09:00 13.9 80 9.59 10.5 4 1025.2 0 21.7 28.0 44.4 116.4 112.7 388.2
26 09:00 17.3 86 12.67 14.9 15 1022.5 7 28.1 32.0 55.3 145.8 150.1 519.7
25 09:00 19.6 69 11.65 13.9 7 1014.9 0 25.8 29.2 49.0 129.2 130.8 452.5
24 09:00 17 98 14.18 16.7 4 1022.3 0.2 31.3 34.9 62.4 164.7 173.2 600.2
23 09:00 17.8 91 13.81 16.3 7 1015.6 3 30.5 33.6 59.7 157.5 165.0 571.7
22 09:00 15.1 99 12.77 14.9 7 1022.7 0.2 28.4 33.0 57.4 151.3 156.1 540.1
21 09:00 18.2 68 10.57 12.3 26 1017 0 23.6 27.9 45.6 119.8 118.7 410.2
20 09:00 18.5 77 12.18 14.4 19 1015.4 0.2 27.0 30.5 52.0 137.0 140.1 484.8
19 09:00 16.6 76 10.74 12.3 15 1012.1 0.1 24.0 28.5 47.0 123.6 123.1 425.2
18 09:00 14.9 92 11.73 13.7 7 1020.5 0 26.2 31.1 52.7 138.9 140.9 487.0
17 09:00 17.3 77 11.34 13.2 9 1022.6 0 25.2 29.7 49.6 130.4 131.2 453.7
16 09:00 18.1 83 12.82 15.2 7 1018.6 0 28.3 31.8 55.2 145.5 150.3 520.3
15 09:00 24.5 26 5.82 3.9 28 1015.2 0 13.3 19.3 25.8 67.1 55.8 190.3
14 09:00 22.9 37 7.56 7.4 4 1020.2 0 17.0 22.2 32.2 84.2 76.2 261.8
12 09:00 13.7 70 8.29 8.3 2 1024.5 0 18.9 25.8 39.1 102.4 95.3 327.6
11 09:00 17.8 66 10.02 11.4 11 1020.7 0 22.4 27.3 43.7 114.9 112.4 387.8
10 09:00 14.4 90 11.13 12.8 4 1020.7 0 25.0 30.3 50.4 132.7 133.1 459.8
09 09:00 16.5 83 11.65 13.7 15 1025.7 0 25.9 30.6 51.6 135.7 137.3 474.8
08 09:00 17 69 9.98 11.3 22 1025.6 0 22.3 27.6 44.2 116.2 113.4 391.4
07 09:00 17 82 11.86 14 7 1025 0 26.4 30.8 52.1 137.2 139.3 481.9
06 09:00 16.3 94 13.04 15.4 2 1024.2 1 28.9 33.1 57.8 152.4 157.8 546.3
05 09:00 16 80 10.9 12.6 19 1019.6 0.4 24.4 29.3 48.4 127.3 127.0 438.7
04 09:00 14.1 92 11.17 12.8 22 1014.9 9 25.1 30.2 50.5 133.0 133.6 461.5
03 09:00 14 92 11.1 12.7 4 1004.5 0 25.0 29.7 49.7 131.1 131.7 454.9
02 09:00 15.1 88 11.35 13.1 2 1013.3 0 25.4 30.1 50.6 133.2 134.2 464.0
01 09:00 17.7 88 13.28 15.7 11 1015.1 0 29.4 32.7 57.4 151.3 157.4 545.0
31 09:00 10.5 93 9.02 9.5 2 1019.2 0 20.6 27.8 43.6 114.4 109.1 375.4
30 09:00 15.5 94 12.43 14.6 11 1018.1 0 27.7 32.1 55.3 145.8 149.7 517.9

Last Refresh: 13-Jul-2020 07:23:08

Most of the information presented on this site is sourced from the Bureau of Meteorology.  Copyright in all material sourced from the Bureau of Meteorology resides with the Commonwealth of Australia.